createdAt,value
2018-12-10T00:00:40.394Z,85.60
2018-12-10T00:03:14.425Z,85.70
2018-12-10T00:05:42.565Z,85.80
2018-12-10T00:08:10.689Z,85.90
2018-12-10T00:10:41.737Z,86.70
2018-12-10T00:13:09.020Z,85.90
2018-12-10T00:15:37.249Z,86.10
2018-12-10T00:18:05.485Z,85.90
2018-12-10T00:20:33.697Z,86.00
2018-12-10T00:23:01.780Z,86.20
2018-12-10T00:25:30.254Z,86.30
2018-12-10T00:27:58.334Z,86.70
2018-12-10T00:30:26.545Z,87.00
2018-12-10T00:32:54.692Z,86.90
2018-12-10T00:35:22.843Z,87.20
2018-12-10T00:37:51.039Z,87.50
2018-12-10T00:40:19.640Z,87.10
2018-12-10T00:42:47.813Z,86.90
2018-12-10T00:45:16.001Z,87.00
2018-12-10T00:47:44.435Z,86.40
2018-12-10T00:50:12.729Z,86.60
2018-12-10T00:52:40.808Z,86.40
2018-12-10T00:55:09.032Z,86.40
2018-12-10T00:57:37.098Z,86.50
2018-12-10T01:00:05.581Z,86.50
2018-12-10T01:02:34.081Z,86.40
2018-12-10T01:05:02.264Z,86.40
2018-12-10T01:07:30.328Z,86.40
2018-12-10T01:09:58.425Z,86.40
2018-12-10T01:12:26.559Z,86.00
2018-12-10T01:14:54.856Z,86.10
2018-12-10T01:17:23.337Z,86.30
2018-12-10T01:19:51.552Z,86.10
2018-12-10T01:22:19.820Z,86.10
2018-12-10T01:24:48.218Z,86.30
2018-12-10T01:27:16.273Z,87.00
2018-12-10T01:29:44.424Z,86.60
2018-12-10T01:32:12.516Z,87.30
2018-12-10T01:34:40.678Z,86.60
2018-12-10T01:37:08.740Z,86.80
2018-12-10T01:39:37.110Z,87.10
2018-12-10T01:42:05.174Z,87.10
2018-12-10T01:44:33.313Z,87.10
2018-12-10T01:47:01.733Z,86.50
2018-12-10T01:49:29.936Z,86.30
2018-12-10T01:51:58.005Z,85.80
2018-12-10T01:54:26.360Z,85.70
2018-12-10T01:56:54.455Z,85.30
2018-12-10T01:59:22.612Z,85.40
2018-12-10T02:01:50.753Z,85.30
2018-12-10T02:04:18.934Z,85.30
2018-12-10T02:06:47.060Z,85.50
2018-12-10T02:09:15.509Z,86.30
2018-12-10T02:11:43.738Z,85.70
2018-12-10T02:14:11.910Z,85.70
2018-12-10T02:16:40.096Z,85.70
2018-12-10T02:19:08.201Z,85.50
2018-12-10T02:21:36.277Z,86.00
2018-12-10T02:24:04.429Z,85.80
2018-12-10T02:26:32.488Z,85.70
2018-12-10T02:29:06.520Z,85.60
2018-12-10T02:31:34.619Z,85.40
2018-12-10T02:34:02.680Z,85.00
2018-12-10T02:36:30.821Z,85.10
2018-12-10T02:38:59.089Z,85.30
2018-12-10T02:41:27.216Z,85.30
2018-12-10T02:43:55.340Z,85.60
2018-12-10T02:46:23.525Z,85.50
2018-12-10T02:48:51.665Z,85.70
2018-12-10T02:51:20.149Z,85.50
2018-12-10T02:53:48.209Z,85.70
2018-12-10T02:56:16.277Z,85.80
2018-12-10T02:58:44.420Z,86.10
2018-12-10T03:01:12.537Z,86.50
2018-12-10T03:03:40.779Z,86.70
2018-12-10T03:06:09.318Z,87.00
2018-12-10T03:08:37.543Z,87.00
2018-12-10T03:11:05.961Z,87.00
2018-12-10T03:13:36.436Z,87.10
2018-12-10T03:16:04.380Z,87.70
2018-12-10T03:18:32.581Z,87.10
2018-12-10T03:21:00.987Z,87.40
2018-12-10T03:23:29.069Z,87.30
2018-12-10T03:25:57.192Z,87.40
2018-12-10T03:28:25.341Z,87.20
2018-12-10T03:30:53.415Z,87.00
2018-12-10T03:33:21.611Z,86.80
2018-12-10T03:35:49.836Z,86.60
2018-12-10T03:38:17.901Z,86.50
2018-12-10T03:40:45.960Z,87.00
2018-12-10T03:43:14.025Z,86.10
2018-12-10T03:45:42.088Z,86.50
2018-12-10T03:48:10.152Z,86.70
2018-12-10T03:50:38.600Z,86.80
2018-12-10T03:53:06.665Z,87.10
2018-12-10T03:55:34.721Z,87.60
2018-12-10T03:58:02.798Z,88.00
2018-12-10T04:00:30.943Z,88.30
2018-12-10T04:02:59.092Z,88.20
2018-12-10T04:05:27.555Z,88.30
2018-12-10T04:07:55.721Z,88.30
2018-12-10T04:10:23.850Z,88.40
2018-12-10T04:12:52.060Z,88.50
2018-12-10T04:15:20.265Z,88.60
2018-12-10T04:17:48.429Z,88.30
2018-12-10T04:20:16.528Z,88.20
2018-12-10T04:22:44.759Z,88.20
2018-12-10T04:25:12.869Z,87.80
2018-12-10T04:27:41.327Z,87.60
2018-12-10T04:30:09.528Z,87.50
2018-12-10T04:32:37.657Z,87.60
2018-12-10T04:35:05.993Z,87.80
2018-12-10T04:37:34.057Z,87.80
2018-12-10T04:40:02.186Z,88.60
2018-12-10T04:42:30.689Z,87.90
2018-12-10T04:44:58.748Z,87.60
2018-12-10T04:47:26.830Z,87.00
2018-12-10T04:49:54.909Z,86.60
2018-12-10T04:52:22.970Z,86.70
2018-12-10T04:54:51.151Z,86.80
2018-12-10T04:57:19.641Z,86.70
2018-12-10T04:59:52.749Z,86.90
2018-12-10T05:02:17.732Z,86.80
2018-12-10T05:04:45.868Z,86.00
2018-12-10T05:07:14.182Z,85.70
2018-12-10T05:09:42.801Z,85.30
2018-12-10T05:12:10.921Z,85.00
2018-12-10T05:14:39.066Z,84.90
2018-12-10T05:17:07.137Z,84.80
2018-12-10T05:19:35.654Z,84.50
2018-12-10T05:22:03.779Z,84.90
2018-12-10T05:24:31.831Z,84.50
2018-12-10T05:27:01.241Z,84.80
2018-12-10T05:29:29.496Z,85.20
2018-12-10T05:31:57.730Z,85.30
2018-12-10T05:34:26.068Z,85.50
2018-12-10T05:36:54.384Z,85.60
2018-12-10T05:39:22.452Z,85.70
2018-12-10T05:41:50.516Z,85.80
2018-12-10T05:44:18.720Z,85.70
2018-12-10T05:46:46.792Z,86.50
2018-12-10T05:49:30.529Z,86.10
2018-12-10T05:51:58.756Z,86.90
2018-12-10T05:54:26.985Z,86.00
2018-12-10T05:56:55.365Z,85.90
2018-12-10T05:59:23.604Z,85.90
2018-12-10T06:01:51.829Z,85.90
2018-12-10T06:04:20.124Z,85.90
2018-12-10T06:06:48.488Z,85.90
2018-12-10T06:09:16.724Z,86.00
2018-12-10T06:11:45.309Z,86.40
2018-12-10T06:14:13.545Z,86.50
2018-12-10T06:16:41.867Z,86.80
2018-12-10T06:19:10.436Z,86.90
2018-12-10T06:21:38.669Z,86.60
2018-12-10T06:24:06.886Z,86.50
2018-12-10T06:26:35.142Z,86.50
2018-12-10T06:29:03.376Z,87.10
2018-12-10T06:31:31.594Z,87.90
2018-12-10T06:33:59.817Z,87.90
2018-12-10T06:36:28.068Z,88.10
2018-12-10T06:38:56.291Z,88.20
2018-12-10T06:41:24.522Z,88.20
2018-12-10T06:43:54.932Z,88.30
2018-12-10T06:46:23.259Z,88.30
2018-12-10T06:48:51.532Z,88.20
2018-12-10T06:51:20.127Z,88.40
2018-12-10T06:53:48.538Z,88.00
2018-12-10T06:56:16.765Z,88.60
2018-12-10T06:58:44.977Z,88.60
2018-12-10T07:01:13.261Z,88.80
2018-12-10T07:03:41.589Z,88.90
2018-12-10T07:06:10.490Z,88.50
2018-12-10T07:08:38.783Z,89.00
2018-12-10T07:11:07.032Z,89.00
2018-12-10T07:13:35.294Z,88.70
2018-12-10T07:16:08.396Z,89.50
2018-12-10T07:18:36.621Z,89.40
2018-12-10T07:21:04.960Z,89.80
2018-12-10T07:23:33.209Z,89.50
2018-12-10T07:26:01.446Z,89.40
2018-12-10T07:28:29.676Z,89.40
2018-12-10T07:30:57.942Z,89.10
2018-12-10T07:33:26.200Z,89.20
2018-12-10T07:35:54.456Z,89.00
2018-12-10T07:38:22.721Z,89.30
2018-12-10T07:40:50.993Z,89.30
2018-12-10T07:43:19.237Z,89.30
2018-12-10T07:45:47.597Z,89.20
2018-12-10T07:48:16.024Z,89.30
2018-12-10T07:50:44.296Z,89.40
2018-12-10T07:53:12.909Z,89.70
2018-12-10T07:55:41.249Z,89.60
2018-12-10T07:58:09.476Z,89.80
2018-12-10T08:00:37.716Z,89.90
2018-12-10T08:03:06.056Z,90.00
2018-12-10T08:05:34.336Z,89.90
2018-12-10T08:08:02.571Z,89.90
2018-12-10T08:10:30.815Z,90.10
2018-12-10T08:12:59.075Z,90.20
2018-12-10T08:15:27.601Z,90.20
2018-12-10T08:17:56.853Z,90.30
2018-12-10T08:20:25.112Z,90.20
2018-12-10T08:22:53.688Z,90.20
2018-12-10T08:25:23.258Z,90.20
2018-12-10T08:27:51.772Z,90.20
2018-12-10T08:30:20.370Z,90.40
2018-12-10T08:32:48.664Z,90.50
2018-12-10T08:35:16.941Z,90.60
2018-12-10T08:37:45.248Z,90.60
2018-12-10T08:40:13.504Z,90.80
2018-12-10T08:42:41.784Z,90.80
2018-12-10T08:45:09.973Z,91.10
2018-12-10T08:47:38.105Z,90.80
2018-12-10T08:50:06.602Z,90.80
2018-12-10T08:52:34.761Z,90.80
2018-12-10T08:55:05.138Z,90.80
2018-12-10T08:57:33.324Z,90.60
2018-12-10T09:00:01.604Z,90.70
2018-12-10T09:02:29.809Z,90.70
2018-12-10T09:04:58.009Z,90.80
2018-12-10T09:07:26.232Z,90.90
2018-12-10T09:09:54.350Z,90.90
2018-12-10T09:12:22.506Z,90.90
2018-12-10T09:14:50.983Z,91.00
2018-12-10T09:17:19.164Z,91.00
2018-12-10T09:19:47.289Z,91.00
2018-12-10T09:22:15.807Z,91.10
2018-12-10T09:24:43.877Z,90.50
2018-12-10T09:27:12.190Z,90.30
2018-12-10T09:29:40.397Z,90.20
2018-12-10T09:32:08.789Z,90.20
2018-12-10T09:34:36.908Z,90.20
2018-12-10T09:37:05.105Z,90.30
2018-12-10T09:39:33.257Z,90.40
2018-12-10T09:42:01.355Z,90.40
2018-12-10T09:44:29.571Z,90.40
2018-12-10T09:46:59.138Z,90.50
2018-12-10T09:49:27.495Z,90.60
2018-12-10T09:51:56.038Z,90.60
2018-12-10T09:54:24.188Z,90.70
2018-12-10T09:56:52.261Z,90.80
2018-12-10T09:59:20.668Z,91.30
2018-12-10T10:01:48.870Z,91.10
2018-12-10T10:04:17.000Z,91.20
2018-12-10T10:06:45.156Z,91.30
2018-12-10T10:09:13.313Z,91.40
2018-12-10T10:11:41.442Z,91.40
2018-12-10T10:14:09.916Z,91.50
2018-12-10T10:16:38.040Z,91.20
2018-12-10T10:19:06.144Z,91.20
2018-12-10T10:21:34.637Z,91.20
2018-12-10T10:24:02.714Z,91.20
2018-12-10T10:26:30.779Z,91.30
2018-12-10T10:28:58.852Z,91.20
2018-12-10T10:31:26.985Z,91.20
2018-12-10T10:33:55.048Z,91.20
2018-12-10T10:36:23.252Z,91.30
2018-12-10T10:38:51.326Z,91.30
2018-12-10T10:41:19.405Z,91.30
2018-12-10T10:43:47.590Z,91.20
2018-12-10T10:46:15.721Z,91.00
2018-12-10T10:48:43.865Z,91.00
2018-12-10T10:51:12.126Z,91.00
2018-12-10T10:53:40.365Z,90.80
2018-12-10T10:56:08.551Z,90.80
2018-12-10T10:58:36.681Z,90.80
2018-12-10T11:02:13.863Z,90.70
2018-12-10T11:04:42.037Z,90.90
2018-12-10T11:07:10.201Z,91.10
2018-12-10T11:09:38.554Z,91.50
2018-12-10T11:12:07.152Z,91.50
2018-12-10T11:14:35.204Z,90.80
2018-12-10T11:17:03.604Z,90.20
2018-12-10T11:19:32.184Z,90.10
2018-12-10T11:22:00.289Z,90.00
2018-12-10T11:24:28.470Z,89.70
2018-12-10T11:26:56.621Z,89.50
2018-12-10T11:29:24.769Z,90.10
2018-12-10T11:31:53.021Z,89.90
2018-12-10T11:34:21.457Z,90.00
2018-12-10T11:36:49.685Z,89.90
2018-12-10T11:39:17.836Z,90.20
2018-12-10T11:41:46.659Z,90.20
2018-12-10T11:44:15.148Z,90.30
2018-12-10T11:46:43.291Z,90.10
2018-12-10T11:49:11.374Z,90.20
2018-12-10T11:51:39.503Z,90.10
2018-12-10T11:54:07.564Z,90.20
2018-12-10T11:56:35.732Z,90.00
2018-12-10T11:59:04.000Z,90.00
2018-12-10T12:01:32.213Z,90.30
2018-12-10T12:04:00.738Z,90.40
2018-12-10T12:06:28.808Z,90.50
2018-12-10T12:08:56.961Z,90.70
2018-12-10T12:11:25.185Z,90.40
2018-12-10T12:13:53.422Z,90.10
2018-12-10T12:16:21.655Z,90.20
2018-12-10T12:18:50.197Z,89.90
2018-12-10T12:21:18.321Z,89.30
2018-12-10T12:23:46.381Z,89.20
2018-12-10T12:26:14.488Z,89.20
2018-12-10T12:28:42.646Z,89.70
2018-12-10T12:31:10.856Z,87.80
2018-12-10T12:33:38.953Z,88.30
2018-12-10T12:36:07.141Z,88.30
2018-12-10T12:38:35.269Z,86.60
2018-12-10T12:41:03.870Z,83.80
2018-12-10T12:43:31.941Z,83.50
2018-12-10T12:46:00.156Z,81.10
2018-12-10T12:48:28.701Z,80.80
2018-12-10T12:50:56.833Z,80.80
2018-12-10T12:53:24.997Z,78.90
2018-12-10T12:55:53.427Z,79.90
2018-12-10T12:58:21.556Z,80.10
2018-12-10T13:00:49.742Z,78.60
2018-12-10T13:03:17.960Z,78.80
2018-12-10T13:05:46.036Z,78.70
2018-12-10T13:08:14.188Z,77.90
2018-12-10T13:10:42.360Z,77.90
2018-12-10T13:13:11.239Z,78.10
2018-12-10T13:15:39.280Z,77.60
2018-12-10T13:18:07.814Z,77.20
2018-12-10T13:20:35.890Z,78.10
2018-12-10T13:23:03.963Z,78.00
2018-12-10T13:25:32.435Z,77.40
2018-12-10T13:28:00.705Z,77.80
2018-12-10T13:30:28.960Z,76.70
2018-12-10T13:32:57.153Z,76.10
2018-12-10T13:35:25.234Z,76.30
2018-12-10T13:37:53.376Z,76.60
2018-12-10T13:40:21.999Z,76.50
2018-12-10T13:42:50.286Z,76.10
2018-12-10T13:45:18.487Z,74.70
2018-12-10T13:47:46.573Z,74.80
2018-12-10T13:50:14.733Z,74.60
2018-12-10T13:52:42.877Z,75.60
2018-12-10T13:55:11.392Z,75.30
2018-12-10T13:57:39.470Z,76.20
2018-12-10T14:00:09.856Z,76.40
2018-12-10T14:02:38.140Z,77.30
2018-12-10T14:05:10.579Z,75.70
2018-12-10T14:07:38.690Z,74.00
2018-12-10T14:10:06.932Z,74.60
2018-12-10T14:12:35.061Z,72.90
2018-12-10T14:15:03.891Z,72.40
2018-12-10T14:17:31.953Z,71.80
2018-12-10T14:20:00.178Z,72.10
2018-12-10T14:22:28.261Z,71.60
2018-12-10T14:24:56.392Z,71.30
2018-12-10T14:27:24.528Z,71.10
2018-12-10T14:29:53.156Z,70.90
2018-12-10T14:32:21.404Z,71.00
2018-12-10T14:34:49.578Z,71.40
2018-12-10T14:37:17.682Z,72.30
2018-12-10T14:39:45.808Z,74.30
2018-12-10T14:42:21.760Z,74.80
2018-12-10T14:44:49.857Z,76.00
2018-12-10T14:47:18.109Z,76.80
2018-12-10T14:49:46.354Z,77.10
2018-12-10T14:52:14.480Z,77.30
2018-12-10T14:54:42.616Z,77.00
2018-12-10T14:57:10.761Z,76.70
2018-12-10T14:59:39.021Z,77.10
2018-12-10T15:02:07.148Z,77.90
2018-12-10T15:04:35.303Z,77.10
2018-12-10T15:07:03.613Z,77.20
2018-12-10T15:09:31.753Z,77.30
2018-12-10T15:12:00.269Z,77.00
2018-12-10T15:14:28.398Z,77.00
2018-12-10T15:16:56.465Z,76.70
2018-12-10T15:19:24.923Z,76.80
2018-12-10T15:21:53.001Z,76.90
2018-12-10T15:24:21.349Z,77.00
2018-12-10T15:26:49.967Z,77.20
2018-12-10T15:29:18.175Z,77.40
2018-12-10T15:31:46.258Z,77.50
2018-12-10T15:34:14.481Z,77.80
2018-12-10T15:36:42.605Z,77.70
2018-12-10T15:39:10.750Z,77.60
2018-12-10T15:41:39.360Z,77.90
2018-12-10T15:44:07.568Z,78.00
2018-12-10T15:46:35.634Z,78.20
2018-12-10T15:49:03.786Z,78.60
2018-12-10T15:51:31.889Z,78.70
2018-12-10T15:53:59.940Z,78.70
2018-12-10T15:56:28.137Z,79.00
2018-12-10T15:58:59.373Z,79.10
2018-12-10T16:01:28.297Z,79.40
2018-12-10T16:03:56.518Z,80.30
2018-12-10T16:06:24.707Z,80.90
2018-12-10T16:08:52.776Z,81.20
2018-12-10T16:11:21.097Z,80.80
2018-12-10T16:13:49.160Z,80.60
2018-12-10T16:16:17.317Z,80.80
2018-12-10T16:18:45.461Z,80.60
2018-12-10T16:21:13.585Z,81.00
2018-12-10T16:23:41.985Z,81.10
2018-12-10T16:26:10.264Z,81.20
2018-12-10T16:28:38.461Z,81.30
2018-12-10T16:31:07.513Z,81.40
2018-12-10T16:33:35.685Z,82.10
2018-12-10T16:36:03.997Z,81.30
2018-12-10T16:38:32.636Z,81.50
2018-12-10T16:41:00.704Z,82.20
2018-12-10T16:43:28.852Z,81.80
2018-12-10T16:45:57.053Z,81.80
2018-12-10T16:48:25.253Z,81.80
2018-12-10T16:50:53.755Z,81.80
2018-12-10T16:53:21.946Z,81.90
2018-12-10T16:55:50.031Z,81.80
2018-12-10T16:58:18.165Z,82.10
2018-12-10T17:00:46.300Z,82.10
2018-12-10T17:03:14.493Z,82.70
2018-12-10T17:05:42.757Z,82.40
2018-12-10T17:08:10.952Z,82.40
2018-12-10T17:10:39.122Z,82.20
2018-12-10T17:13:07.217Z,82.60
2018-12-10T17:15:35.800Z,82.50
2018-12-10T17:18:03.936Z,82.60
2018-12-10T17:20:32.129Z,82.40
2018-12-10T17:23:00.229Z,82.30
2018-12-10T17:25:28.497Z,82.20
2018-12-10T17:27:56.632Z,82.40
2018-12-10T17:30:24.789Z,82.40
2018-12-10T17:32:52.917Z,82.40
2018-12-10T17:35:21.057Z,82.30
2018-12-10T17:37:49.144Z,82.20
2018-12-10T17:40:17.434Z,82.40
2018-12-10T17:42:45.768Z,82.30
2018-12-10T17:45:14.375Z,82.20
2018-12-10T17:47:42.576Z,82.20
2018-12-10T17:50:11.912Z,82.00
2018-12-10T17:52:40.202Z,81.70
2018-12-10T17:55:08.620Z,82.30
2018-12-10T17:57:36.701Z,82.30
2018-12-10T18:00:07.252Z,82.50
2018-12-10T18:02:35.515Z,82.60
2018-12-10T18:05:03.789Z,82.60
2018-12-10T18:07:31.857Z,82.60
2018-12-10T18:09:59.986Z,82.70
2018-12-10T18:12:28.062Z,82.60
2018-12-10T18:14:56.653Z,82.40
2018-12-10T18:17:24.963Z,82.60
2018-12-10T18:19:53.080Z,82.50
2018-12-10T18:22:21.578Z,82.60
2018-12-10T18:24:49.654Z,82.30
2018-12-10T18:27:17.737Z,82.70
2018-12-10T18:29:45.879Z,82.90
2018-12-10T18:32:14.093Z,82.70
2018-12-10T18:34:42.405Z,83.10
2018-12-10T18:37:10.733Z,83.30
2018-12-10T18:39:38.808Z,83.10
2018-12-10T18:42:06.913Z,83.80
2018-12-10T18:44:34.983Z,83.00
2018-12-10T18:47:03.618Z,83.20
2018-12-10T18:49:31.850Z,82.80
2018-12-10T18:52:00.411Z,82.80
2018-12-10T18:54:29.126Z,83.00
2018-12-10T18:56:57.205Z,83.10
2018-12-10T18:59:25.310Z,83.80
2018-12-10T19:01:53.450Z,83.60
2018-12-10T19:04:21.649Z,83.70
2018-12-10T19:06:49.867Z,83.60
2018-12-10T19:09:18.277Z,83.40
2018-12-10T19:11:46.481Z,83.40
2018-12-10T19:14:14.907Z,83.40
2018-12-10T19:16:43.065Z,83.30
2018-12-10T19:19:11.237Z,83.40
2018-12-10T19:21:39.742Z,83.30
2018-12-10T19:24:07.880Z,83.10
2018-12-10T19:26:35.960Z,83.30
2018-12-10T19:29:04.528Z,83.30
2018-12-10T19:31:32.924Z,83.30
2018-12-10T19:34:03.547Z,83.00
2018-12-10T19:36:31.556Z,83.10
2018-12-10T19:38:59.686Z,83.00
2018-12-10T19:41:28.046Z,83.20
2018-12-10T19:43:56.543Z,82.90
2018-12-10T19:46:24.636Z,83.40
2018-12-10T19:48:52.834Z,83.90
2018-12-10T19:51:21.519Z,84.10
2018-12-10T19:53:49.748Z,84.60
2018-12-10T19:56:18.086Z,84.50
2018-12-10T19:58:46.322Z,84.40
2018-12-10T20:01:14.569Z,84.90
2018-12-10T20:03:42.823Z,85.00
2018-12-10T20:06:18.319Z,85.10
2018-12-10T20:08:46.469Z,85.20
2018-12-10T20:11:14.538Z,86.30
2018-12-10T20:13:43.345Z,86.40
2018-12-10T20:16:11.789Z,86.30
2018-12-10T20:18:40.013Z,86.10
2018-12-10T20:21:08.481Z,85.70
2018-12-10T20:23:36.612Z,85.90
2018-12-10T20:26:04.758Z,85.70
2018-12-10T20:28:33.028Z,85.70
2018-12-10T20:31:01.172Z,85.70
2018-12-10T20:33:29.318Z,85.60
2018-12-10T20:35:57.420Z,85.50
2018-12-10T20:38:25.638Z,85.50
2018-12-10T20:40:53.988Z,85.40
2018-12-10T20:43:22.462Z,85.40
2018-12-10T20:45:50.537Z,85.20
2018-12-10T20:48:18.624Z,85.30
2018-12-10T20:50:47.266Z,86.10
2018-12-10T20:53:15.529Z,85.50
2018-12-10T20:55:43.656Z,85.50
2018-12-10T20:58:11.740Z,85.60
2018-12-10T21:00:39.801Z,85.50
2018-12-10T21:03:07.998Z,85.70
2018-12-10T21:05:40.388Z,85.70
2018-12-10T21:08:08.531Z,85.80
2018-12-10T21:10:36.602Z,85.80
2018-12-10T21:13:04.720Z,85.80
2018-12-10T21:15:32.920Z,85.90
2018-12-10T21:18:00.978Z,86.00
2018-12-10T21:20:29.068Z,86.00
2018-12-10T21:22:57.204Z,85.90
2018-12-10T21:25:25.361Z,86.70
2018-12-10T21:27:53.551Z,86.00
2018-12-10T21:30:21.611Z,86.30
2018-12-10T21:32:49.900Z,86.40
2018-12-10T21:35:18.697Z,86.50
2018-12-10T21:37:46.761Z,86.50
2018-12-10T21:40:14.897Z,86.50
2018-12-10T21:42:43.009Z,86.70
2018-12-10T21:45:11.212Z,86.40
2018-12-10T21:47:39.314Z,86.60
2018-12-10T21:50:07.378Z,86.50
2018-12-10T21:52:35.605Z,86.60
2018-12-10T21:55:03.800Z,86.80
2018-12-10T21:57:31.895Z,86.80
2018-12-10T21:59:59.956Z,86.90
2018-12-10T22:02:28.161Z,87.20
2018-12-10T22:04:56.243Z,87.30
2018-12-10T22:07:24.436Z,87.50
2018-12-10T22:09:52.507Z,87.80
2018-12-10T22:12:20.985Z,88.00
2018-12-10T22:14:49.137Z,88.40
2018-12-10T22:17:17.282Z,88.30
2018-12-10T22:19:45.959Z,88.30
2018-12-10T22:22:14.021Z,88.30
2018-12-10T22:24:42.209Z,88.20
2018-12-10T22:27:10.663Z,88.20
2018-12-10T22:29:38.882Z,87.90
2018-12-10T22:32:07.101Z,87.90
2018-12-10T22:34:35.576Z,88.40
2018-12-10T22:37:03.720Z,87.60
2018-12-10T22:39:31.968Z,87.30
2018-12-10T22:42:00.086Z,87.30
2018-12-10T22:44:28.186Z,87.50
2018-12-10T22:46:56.257Z,87.50
2018-12-10T22:49:24.833Z,87.30
2018-12-10T22:51:53.173Z,87.50
2018-12-10T22:54:21.353Z,87.20
2018-12-10T22:56:49.500Z,87.10
2018-12-10T22:59:17.640Z,87.10
2018-12-10T23:01:45.891Z,87.00
2018-12-10T23:04:14.328Z,86.70
2018-12-10T23:06:42.461Z,86.90
2018-12-10T23:09:10.724Z,86.90
2018-12-10T23:11:39.096Z,86.50
2018-12-10T23:14:07.312Z,86.90
2018-12-10T23:16:35.441Z,86.90
2018-12-10T23:19:04.044Z,86.90
2018-12-10T23:21:32.108Z,87.00
2018-12-10T23:24:00.184Z,87.20
2018-12-10T23:26:28.561Z,87.30
2018-12-10T23:28:56.721Z,87.80
2018-12-10T23:31:24.832Z,88.00
2018-12-10T23:33:52.993Z,88.20
2018-12-10T23:36:21.125Z,88.30
2018-12-10T23:38:49.264Z,88.90
2018-12-10T23:41:17.816Z,88.10
2018-12-10T23:43:45.974Z,88.10
2018-12-10T23:46:14.236Z,88.60
2018-12-10T23:48:42.739Z,87.80
2018-12-10T23:51:10.810Z,87.70
2018-12-10T23:53:38.892Z,87.60
2018-12-10T23:56:06.986Z,87.60
2018-12-10T23:58:35.048Z,87.60
